Time;durP1;ratioP1;P1;durP2;ratioP2;P2;SDS_P1;SDS_P2;PMS_P1;PMS_P2;Temp;Humidity;BMP_temperature;BMP_pressure;BME280_temperature;BME280_humidity;BME280_pressure;Samples;Min_cycle;Max_cycle;Signal;HPM_P1;HPM_P2
2022/03/28 00:01:53;;;;;;;9.07;8.10;;;;;;;6.39;98.54;101181.38;5023723;28;20281;-63
2022/03/28 00:04:19;;;;;;;9.50;8.27;;;;;;;6.37;98.78;101184.72;5029643;28;20649;-63
2022/03/28 00:06:44;;;;;;;9.27;7.93;;;;;;;6.34;98.74;101192.41;5026064;28;20183;-63
2022/03/28 00:09:10;;;;;;;10.83;8.90;;;;;;;6.30;98.86;101183.72;5027487;28;20319;-63
2022/03/28 00:11:35;;;;;;;8.83;7.90;;;;;;;6.24;98.93;101174.16;5027329;28;20219;-63
2022/03/28 00:14:01;;;;;;;8.70;7.80;;;;;;;6.22;99.33;101173.25;5027517;28;20189;-63
2022/03/28 00:16:27;;;;;;;10.03;8.67;;;;;;;6.19;99.49;101180.94;5022322;28;20604;-62
2022/03/28 00:18:52;;;;;;;9.77;8.63;;;;;;;6.16;99.38;101172.25;5021383;28;20207;-62
2022/03/28 00:21:18;;;;;;;9.07;8.10;;;;;;;6.12;99.62;101176.47;5023652;28;20580;-62
2022/03/28 00:23:43;;;;;;;10.30;7.57;;;;;;;6.07;99.80;101176.34;5022933;28;20188;-63
2022/03/28 00:26:08;;;;;;;10.53;8.20;;;;;;;6.03;99.67;101169.41;5023795;28;20199;-64
2022/03/28 00:28:34;;;;;;;9.87;7.80;;;;;;;5.99;99.87;101170.13;5022223;28;20258;-63
2022/03/28 00:30:59;;;;;;;9.43;8.27;;;;;;;5.96;99.84;101167.50;5024927;28;20203;-62
2022/03/28 00:33:24;;;;;;;10.97;8.60;;;;;;;5.93;100.00;101159.72;5023195;28;20211;-64
2022/03/28 00:35:50;;;;;;;12.80;9.63;;;;;;;5.90;100.00;101154.47;5022040;28;20282;-62
2022/03/28 00:38:16;;;;;;;9.87;8.87;;;;;;;5.87;100.00;101159.53;5024160;28;20211;-62
2022/03/28 00:40:42;;;;;;;8.97;7.67;;;;;;;5.83;100.00;101153.47;5023856;28;20188;-63
2022/03/28 00:43:09;;;;;;;9.83;8.83;;;;;;;5.79;100.00;101149.97;5022674;28;20191;-63
2022/03/28 00:45:37;;;;;;;9.37;8.43;;;;;;;5.74;100.00;101146.41;5023865;28;20774;-63
2022/03/28 00:48:04;;;;;;;11.30;9.17;;;;;;;5.70;100.00;101154.84;5020287;28;20302;-64
2022/03/28 00:50:31;;;;;;;12.60;8.73;;;;;;;5.66;100.00;101158.19;5027797;28;20199;-63
2022/03/28 00:52:58;;;;;;;9.73;8.70;;;;;;;5.62;100.00;101148.66;5028156;28;20463;-63
2022/03/28 00:55:23;;;;;;;9.60;8.60;;;;;;;5.61;100.00;101141.78;5037295;28;20280;-62
2022/03/28 00:57:49;;;;;;;9.10;8.03;;;;;;;5.60;100.00;101145.19;5025953;28;20228;-62
2022/03/28 01:00:15;;;;;;;8.80;7.97;;;;;;;5.57;100.00;101143.44;5024731;28;20196;-63
2022/03/28 01:02:40;;;;;;;11.33;8.83;;;;;;;5.53;100.00;101139.03;5026632;28;20180;-63
2022/03/28 01:05:06;;;;;;;9.20;8.03;;;;;;;5.51;100.00;101144.97;5021104;28;20273;-64
2022/03/28 01:07:32;;;;;;;10.13;8.57;;;;;;;5.48;100.00;101145.75;5028640;28;20572;-63
2022/03/28 01:10:00;;;;;;;10.20;8.10;;;;;;;5.46;100.00;101138.00;5027357;28;20211;-62
2022/03/28 01:12:26;;;;;;;9.23;8.30;;;;;;;5.43;100.00;101140.50;5025408;28;20302;-64
2022/03/28 01:14:53;;;;;;;9.60;8.53;;;;;;;5.43;100.00;101137.06;5020078;28;20780;-62
2022/03/28 01:20:03;;;;;;;10.80;8.07;;;;;;;5.38;100.00;101139.50;5023863;28;20277;-64
2022/03/28 01:22:29;;;;;;;9.43;7.90;;;;;;;5.36;100.00;101145.44;5032937;28;20187;-63
2022/03/28 01:24:59;;;;;;;11.23;8.53;;;;;;;5.31;100.00;101138.47;5021415;28;20583;-63
2022/03/28 01:27:25;;;;;;;11.63;8.13;;;;;;;5.26;100.00;101140.06;5029792;28;20461;-62
2022/03/28 01:29:50;;;;;;;10.03;8.43;;;;;;;5.19;100.00;101139.03;5040585;28;20212;-63
2022/03/28 01:32:16;;;;;;;9.77;8.77;;;;;;;5.16;100.00;101143.19;5040930;28;20211;-64
2022/03/28 01:34:41;;;;;;;9.83;8.40;;;;;;;5.10;100.00;101141.31;5022881;28;20617;-64
2022/03/28 01:37:06;;;;;;;8.60;7.63;;;;;;;5.04;100.00;101136.06;5023211;28;20555;-64
2022/03/28 01:39:32;;;;;;;9.07;7.93;;;;;;;4.99;100.00;101137.59;5021237;28;20250;-64
2022/03/28 01:41:58;;;;;;;9.90;8.70;;;;;;;4.94;100.00;101136.59;5026031;28;20245;-64
2022/03/28 01:44:24;;;;;;;9.40;8.37;;;;;;;4.87;100.00;101141.56;5024751;28;20235;-64
2022/03/28 01:46:49;;;;;;;8.73;7.43;;;;;;;4.83;100.00;101139.75;5027719;28;20195;-64
2022/03/28 01:49:17;;;;;;;9.07;7.37;;;;;;;4.82;100.00;101129.44;5022210;28;20574;-64
2022/03/28 01:51:42;;;;;;;11.77;8.80;;;;;;;4.83;100.00;101128.63;5024620;28;20620;-64
2022/03/28 01:54:09;;;;;;;8.53;7.60;;;;;;;4.83;100.00;101124.34;5023545;28;20192;-64
2022/03/28 01:56:35;;;;;;;9.10;7.93;;;;;;;4.86;100.00;101123.56;5017953;28;20190;-64
2022/03/28 01:59:02;;;;;;;9.90;7.97;;;;;;;4.85;100.00;101120.13;5025855;28;20213;-64
2022/03/28 02:01:27;;;;;;;11.37;8.40;;;;;;;4.84;100.00;101126.09;5025309;28;20725;-64
2022/03/28 02:03:53;;;;;;;10.40;8.27;;;;;;;4.81;100.00;101120.03;5024237;28;20191;-64
2022/03/28 02:06:18;;;;;;;11.10;8.73;;;;;;;4.78;100.00;101118.22;5026207;28;20728;-64
2022/03/28 02:08:43;;;;;;;11.63;9.10;;;;;;;4.76;100.00;101121.56;5017331;28;20215;-62
2022/03/28 02:11:09;;;;;;;12.30;9.13;;;;;;;4.71;100.00;101109.47;5029672;28;20626;-63
2022/03/28 02:13:37;;;;;;;11.73;9.17;;;;;;;4.69;100.00;101111.13;5020129;28;20668;-64
2022/03/28 02:16:03;;;;;;;9.43;8.43;;;;;;;4.65;100.00;101111.00;5022804;28;20184;-64
2022/03/28 02:18:29;;;;;;;12.00;10.13;;;;;;;4.61;100.00;101110.06;5026206;28;20309;-64
2022/03/28 02:20:54;;;;;;;10.83;8.43;;;;;;;4.60;100.00;101102.34;5020473;28;20195;-62
2022/03/28 02:23:20;;;;;;;9.87;8.37;;;;;;;4.55;100.00;101100.50;5026034;28;20257;-64
2022/03/28 02:25:46;;;;;;;11.70;9.33;;;;;;;4.54;100.00;101101.31;5023892;28;20206;-63
2022/03/28 02:28:11;;;;;;;10.43;9.03;;;;;;;4.51;100.00;101100.38;5015829;28;20199;-63
2022/03/28 02:30:37;;;;;;;9.47;8.50;;;;;;;4.48;100.00;101095.16;5014239;28;22136;-64
2022/03/28 02:33:03;;;;;;;10.90;8.30;;;;;;;4.43;100.00;101095.88;5022616;28;20224;-64
2022/03/28 02:35:28;;;;;;;8.70;7.80;;;;;;;4.40;100.00;101093.22;5022796;28;20248;-64
2022/03/28 02:37:53;;;;;;;8.70;7.80;;;;;;;4.40;100.00;101100.06;5021573;28;20298;-63
2022/03/28 02:40:19;;;;;;;9.73;8.47;;;;;;;4.39;100.00;101095.75;5024720;28;21271;-64
2022/03/28 02:42:44;;;;;;;8.73;7.67;;;;;;;4.38;100.00;101096.56;5031725;28;20180;-64
2022/03/28 02:45:10;;;;;;;9.63;8.43;;;;;;;4.36;100.00;101098.22;5020348;28;20599;-63
2022/03/28 02:47:35;;;;;;;9.33;7.97;;;;;;;4.35;100.00;101099.03;5032286;28;20212;-64
2022/03/28 02:50:02;;;;;;;10.60;8.10;;;;;;;4.35;100.00;101096.47;5030654;28;20219;-64
2022/03/28 02:52:27;;;;;;;8.90;7.93;;;;;;;4.36;100.00;101100.78;5020636;28;20216;-64
2022/03/28 02:54:53;;;;;;;9.47;7.67;;;;;;;4.34;100.00;101090.50;5020067;28;20201;-63
2022/03/28 02:57:18;;;;;;;8.20;7.30;;;;;;;4.33;100.00;101095.56;5018489;28;20199;-64
2022/03/28 02:59:44;;;;;;;10.53;8.50;;;;;;;4.32;100.00;101091.25;5032731;28;20536;-64
2022/03/28 03:02:09;;;;;;;9.27;7.53;;;;;;;4.29;100.00;101096.31;5033965;28;20701;-64
2022/03/28 03:04:35;;;;;;;10.43;8.27;;;;;;;4.25;100.00;101091.09;5023321;28;20744;-64
2022/03/28 03:07:01;;;;;;;9.60;8.53;;;;;;;4.20;100.00;101091.78;5022183;28;20360;-63
2022/03/28 03:09:27;;;;;;;10.17;8.27;;;;;;;4.17;100.00;101092.53;5026773;28;20222;-64
2022/03/28 03:11:52;;;;;;;10.40;8.77;;;;;;;4.12;100.00;101097.53;5025553;28;20215;-63
2022/03/28 03:14:17;;;;;;;11.47;9.43;;;;;;;4.07;100.00;101086.28;5027778;28;20199;-63
2022/03/28 03:16:43;;;;;;;10.57;9.17;;;;;;;4.02;100.00;101089.50;5023816;28;20203;-64
2022/03/28 03:19:09;;;;;;;9.73;8.53;;;;;;;3.94;100.00;101090.16;5022604;28;20203;-64
2022/03/28 03:21:35;;;;;;;11.10;8.87;;;;;;;3.90;100.00;101093.44;5027084;28;20650;-63
2022/03/28 03:24:01;;;;;;;10.67;9.47;;;;;;;3.88;100.00;101099.34;5024794;28;20184;-64
2022/03/28 03:26:27;;;;;;;11.90;8.60;;;;;;;3.87;100.00;101095.03;5030836;28;20197;-63
2022/03/28 03:28:55;;;;;;;9.87;8.67;;;;;;;3.89;100.00;101090.84;5024456;28;20202;-63
2022/03/28 03:31:21;;;;;;;10.60;9.33;;;;;;;3.90;100.00;101088.31;5026541;28;20192;-64
2022/03/28 03:33:47;;;;;;;10.40;8.83;;;;;;;3.91;100.00;101089.19;5022697;28;20641;-64
2022/03/28 03:36:12;;;;;;;10.97;8.90;;;;;;;3.91;100.00;101092.59;5027139;28;20523;-64
2022/03/28 03:38:37;;;;;;;8.70;7.80;;;;;;;3.94;100.00;101091.81;5022351;28;20214;-63
2022/03/28 03:41:03;;;;;;;9.83;8.20;;;;;;;3.92;100.00;101085.81;5028255;28;20215;-64
2022/03/28 03:43:28;;;;;;;9.87;8.57;;;;;;;3.89;100.00;101085.72;5028923;28;20186;-63
2022/03/28 03:45:54;;;;;;;10.63;8.20;;;;;;;3.84;100.00;101098.38;5025455;28;20286;-62
2022/03/28 03:48:19;;;;;;;13.30;8.93;;;;;;;3.80;100.00;101088.84;5021566;28;20427;-64
2022/03/28 03:50:45;;;;;;;11.13;9.23;;;;;;;3.77;100.00;101091.31;5027791;28;20640;-63
2022/03/28 03:53:10;;;;;;;14.30;9.07;;;;;;;3.75;100.00;101093.81;5031456;28;20653;-63
2022/03/28 03:55:37;;;;;;;12.77;9.63;;;;;;;3.73;100.00;101099.69;5025586;28;20347;-63
2022/03/28 03:58:03;;;;;;;12.30;9.87;;;;;;;3.68;100.00;101096.13;5019123;28;20752;-63
2022/03/28 04:00:28;;;;;;;14.07;8.77;;;;;;;3.63;100.00;101093.44;5027260;28;20277;-63
2022/03/28 04:02:53;;;;;;;13.07;9.90;;;;;;;3.60;100.00;101101.00;5028754;28;20187;-63
2022/03/28 04:05:19;;;;;;;13.83;9.60;;;;;;;3.59;100.00;101096.72;5030769;28;20208;-64
2022/03/28 04:07:44;;;;;;;11.00;9.43;;;;;;;3.58;100.00;101097.53;5024507;28;20187;-63
2022/03/28 04:10:10;;;;;;;10.30;9.23;;;;;;;3.53;100.00;101091.38;5032549;28;20187;-62
2022/03/28 04:12:37;;;;;;;13.47;9.80;;;;;;;3.50;100.00;101098.13;5024730;28;20253;-64
2022/03/28 04:15:02;;;;;;;13.40;10.03;;;;;;;3.46;100.00;101097.97;5027645;28;20639;-64
2022/03/28 04:17:29;;;;;;;13.63;9.50;;;;;;;3.42;100.00;101103.81;5021696;28;20199;-63
2022/03/28 04:19:55;;;;;;;10.83;9.20;;;;;;;3.38;100.00;101102.84;5026359;28;20220;-64
2022/03/28 04:22:21;;;;;;;9.37;8.47;;;;;;;3.33;100.00;101100.13;5026825;28;20620;-64
2022/03/28 04:24:46;;;;;;;10.33;8.93;;;;;;;3.31;100.00;101098.34;5031154;28;20242;-63
2022/03/28 04:27:12;;;;;;;12.40;10.10;;;;;;;3.27;100.00;101105.03;5021777;28;20196;-63
2022/03/28 04:29:37;;;;;;;9.70;8.73;;;;;;;3.25;100.00;101099.03;5024397;28;20810;-64
2022/03/28 04:32:03;;;;;;;11.73;9.53;;;;;;;3.27;100.00;101101.63;5032226;28;20297;-64
2022/03/28 04:34:28;;;;;;;9.57;8.57;;;;;;;3.30;100.00;101102.59;5026998;28;20694;-63
2022/03/28 04:36:53;;;;;;;11.67;8.53;;;;;;;3.34;100.00;101101.88;5032333;28;20234;-63
2022/03/28 04:39:19;;;;;;;11.57;9.00;;;;;;;3.37;100.00;101095.97;5034939;28;20238;-63
2022/03/28 04:41:44;;;;;;;11.53;9.03;;;;;;;3.38;100.00;101107.09;5035374;28;20183;-63
2022/03/28 04:44:10;;;;;;;10.10;8.87;;;;;;;3.39;100.00;101101.16;5029794;28;20560;-64
2022/03/28 04:46:35;;;;;;;10.00;8.43;;;;;;;3.36;100.00;101096.81;5027227;28;20191;-63
2022/03/28 04:49:01;;;;;;;10.40;8.80;;;;;;;3.38;100.00;101102.84;5030405;28;20660;-65
2022/03/28 04:51:26;;;;;;;11.70;8.90;;;;;;;3.36;100.00;101096.81;5036056;28;20204;-63
2022/03/28 04:53:51;;;;;;;10.00;8.83;;;;;;;3.35;100.00;101097.63;5033682;28;20245;-64
2022/03/28 04:56:17;;;;;;;11.43;9.37;;;;;;;3.32;100.00;101103.50;5032731;28;20245;-63
2022/03/28 04:58:42;;;;;;;10.13;8.83;;;;;;;3.31;100.00;101106.03;5025351;28;20208;-64
2022/03/28 05:01:11;;;;;;;12.93;9.57;;;;;;;3.26;100.00;101095.63;5024018;28;20655;-64
2022/03/28 05:03:36;;;;;;;11.50;9.43;;;;;;;3.24;100.00;101096.38;5018815;28;20184;-64
2022/03/28 05:06:02;;;;;;;14.33;9.93;;;;;;;3.20;100.00;101103.94;5031250;28;20197;-64
2022/03/28 05:08:28;;;;;;;11.27;9.67;;;;;;;3.20;100.00;101101.41;5029133;28;20211;-63
2022/03/28 05:10:53;;;;;;;13.33;9.73;;;;;;;3.20;100.00;101103.09;5026046;28;20667;-64
2022/03/28 05:13:20;;;;;;;10.63;9.10;;;;;;;3.17;100.00;101108.09;5026287;28;20227;-63
2022/03/28 05:15:46;;;;;;;14.67;9.70;;;;;;;3.15;100.00;101097.84;5021736;28;20183;-63
2022/03/28 05:18:14;;;;;;;11.37;9.47;;;;;;;3.15;100.00;101095.28;5026616;28;20207;-64
2022/03/28 05:20:40;;;;;;;9.87;8.87;;;;;;;3.15;100.00;101100.38;5027669;28;20188;-62
2022/03/28 05:23:05;;;;;;;10.20;8.73;;;;;;;3.17;100.00;101092.75;5027083;28;20202;-64
2022/03/28 05:25:31;;;;;;;9.87;8.87;;;;;;;3.18;100.00;101094.50;5026321;28;20197;-64
2022/03/28 05:27:56;;;;;;;11.93;9.13;;;;;;;3.22;100.00;101101.47;5031478;28;20199;-65
2022/03/28 05:30:22;;;;;;;11.03;9.37;;;;;;;3.27;100.00;101099.91;5026861;28;20594;-64
2022/03/28 05:32:47;;;;;;;11.63;8.87;;;;;;;3.32;100.00;101097.53;5023118;28;20203;-63
2022/03/28 05:35:13;;;;;;;11.30;9.47;;;;;;;3.39;100.00;101096.91;5027882;28;20554;-64
2022/03/28 05:37:40;;;;;;;10.07;9.07;;;;;;;3.46;100.00;101092.88;5024831;28;20195;-64
2022/03/28 05:40:06;;;;;;;11.73;9.17;;;;;;;3.56;100.00;101087.22;5015691;28;20191;-64
2022/03/28 05:42:32;;;;;;;10.80;9.37;;;;;;;3.67;100.00;101097.81;5022368;28;20255;-65
2022/03/28 05:44:57;;;;;;;10.63;9.53;;;;;;;3.77;100.00;101091.31;5020156;28;20195;-64
2022/03/28 05:47:22;;;;;;;10.27;9.07;;;;;;;3.91;100.00;101087.47;5018481;28;20194;-64
2022/03/28 05:49:48;;;;;;;10.47;9.27;;;;;;;4.10;100.00;101085.50;5022177;28;20215;-64
2022/03/28 05:52:13;;;;;;;9.57;8.53;;;;;;;4.29;100.00;101079.22;5020035;28;20284;-63
2022/03/28 05:54:38;;;;;;;11.67;9.23;;;;;;;4.56;100.00;101078.28;5022303;28;20192;-63
2022/03/28 05:57:05;;;;;;;10.27;8.80;;;;;;;4.88;100.00;101080.88;5023046;28;20698;-65
2022/03/28 05:59:31;;;;;;;10.43;9.33;;;;;;;5.08;100.00;101075.41;5020602;28;20667;-65
2022/03/28 06:01:56;;;;;;;10.23;9.10;;;;;;;5.18;100.00;101078.28;5018182;28;20194;-65
2022/03/28 06:04:22;;;;;;;12.07;9.60;;;;;;;5.32;100.00;101082.88;5024699;28;20192;-63
2022/03/28 06:06:47;;;;;;;13.07;10.57;;;;;;;5.40;100.00;101077.94;5028727;28;20187;-63
2022/03/28 06:09:13;;;;;;;10.77;9.67;;;;;;;5.40;100.00;101085.66;5026481;28;20427;-64
2022/03/28 06:11:38;;;;;;;10.37;9.23;;;;;;;5.44;100.00;101090.88;5021799;28;20223;-65
2022/03/28 06:14:04;;;;;;;10.37;9.27;;;;;;;5.61;100.00;101083.59;5032686;28;20195;-64
2022/03/28 06:16:29;;;;;;;9.83;8.77;;;;;;;5.94;100.00;101090.34;5027484;28;20245;-65
2022/03/28 06:18:55;;;;;;;12.03;8.47;;;;;;;6.24;99.52;101089.34;5020860;28;20572;-64
2022/03/28 06:21:20;;;;;;;19.77;15.40;;;;;;;6.53;98.63;101085.66;5020116;28;21644;-64
2022/03/28 06:23:46;;;;;;;23.90;17.73;;;;;;;6.88;97.08;101092.34;5022413;28;22049;-64
2022/03/28 06:26:11;;;;;;;17.83;14.70;;;;;;;7.14;95.26;101096.25;5031750;28;20188;-65
2022/03/28 06:28:39;;;;;;;15.13;12.93;;;;;;;7.32;94.75;101100.88;5024951;28;20337;-65
2022/03/28 06:31:05;;;;;;;13.10;10.30;;;;;;;7.44;94.23;101097.63;5026849;28;20202;-63
2022/03/28 06:33:30;;;;;;;12.17;10.77;;;;;;;7.57;93.20;101097.84;5027170;28;20217;-65
2022/03/28 06:35:56;;;;;;;11.80;10.00;;;;;;;7.84;92.46;101102.56;5026575;28;20200;-65
2022/03/28 06:38:22;;;;;;;11.63;9.83;;;;;;;8.16;91.75;101094.44;5038320;28;20210;-64
2022/03/28 06:40:48;;;;;;;10.77;9.47;;;;;;;8.52;90.70;101089.78;5033374;28;20195;-64
2022/03/28 06:43:13;;;;;;;14.47;11.00;;;;;;;8.77;89.78;101092.69;5031672;28;20224;-66
2022/03/28 06:45:39;;;;;;;11.73;9.17;;;;;;;8.88;89.39;101095.34;5040262;28;20562;-64
2022/03/28 06:48:05;;;;;;;13.40;9.50;;;;;;;9.02;89.24;101096.38;5031626;28;20754;-63
2022/03/28 06:50:30;;;;;;;12.93;9.73;;;;;;;9.27;88.75;101092.31;5035167;28;20737;-64
2022/03/28 06:52:56;;;;;;;12.83;9.47;;;;;;;9.46;88.33;101095.94;5033563;28;20217;-64
2022/03/28 06:55:22;;;;;;;11.63;10.43;;;;;;;9.59;88.38;101096.06;5028311;28;20200;-64
2022/03/28 06:57:48;;;;;;;11.10;10.00;;;;;;;9.79;87.58;101090.16;5017455;28;20232;-64
2022/03/28 07:00:14;;;;;;;10.30;9.17;;;;;;;9.97;87.04;101090.28;5031931;28;20570;-63
2022/03/28 07:02:39;;;;;;;10.77;9.47;;;;;;;10.23;86.26;101086.97;5032751;28;20327;-64
2022/03/28 07:05:08;;;;;;;9.43;8.43;;;;;;;10.54;85.40;101094.06;5028571;28;20605;-65
2022/03/28 07:07:50;;;;;;;10.23;8.20;;;;;;;10.91;84.38;101089.88;5035050;28;20199;-65
2022/03/28 07:10:18;;;;;;;9.20;7.93;;;;;;;11.25;83.33;101089.06;5045634;28;20566;-64
2022/03/28 07:12:43;;;;;;;9.73;8.00;;;;;;;11.51;82.35;101083.03;5024334;28;20291;-65
2022/03/28 07:15:10;;;;;;;9.33;8.33;;;;;;;11.68;81.12;101089.06;5022745;28;20278;-65
2022/03/28 07:17:52;;;;;;;9.30;8.27;;;;;;;11.83;80.52;101087.31;5018219;28;20184;-65
2022/03/28 07:20:22;;;;;;;8.53;7.73;;;;;;;11.94;80.30;101092.50;5027677;28;20664;-64
2022/03/28 07:22:48;;;;;;;11.23;8.47;;;;;;;11.96;78.99;101085.59;5017985;28;20234;-64
2022/03/28 07:25:14;;;;;;;9.17;8.27;;;;;;;11.98;79.26;101096.84;5019863;28;20677;-65
2022/03/28 07:27:41;;;;;;;8.70;7.43;;;;;;;12.01;79.24;101096.88;5024811;28;20188;-64
2022/03/28 07:30:08;;;;;;;9.07;7.63;;;;;;;12.02;79.40;101090.81;5025955;28;20243;-67
2022/03/28 07:32:34;;;;;;;8.90;7.20;;;;;;;12.03;79.34;101083.00;5022262;28;20218;-63
2022/03/28 07:34:59;;;;;;;8.80;7.90;;;;;;;12.06;79.30;101087.31;5026087;28;20175;-64
2022/03/28 07:37:26;;;;;;;9.20;7.53;;;;;;;12.09;79.15;101082.13;5013001;28;20324;-63
2022/03/28 07:39:52;;;;;;;8.40;7.50;;;;;;;12.13;79.11;101088.16;5025929;28;20556;-65
2022/03/28 07:42:17;;;;;;;9.73;8.67;;;;;;;12.15;79.07;101079.53;5017621;28;20176;-64
2022/03/28 07:44:42;;;;;;;10.37;9.37;;;;;;;12.19;78.33;101082.97;5021766;28;20183;-65
2022/03/28 07:47:08;;;;;;;10.73;9.63;;;;;;;12.23;78.49;101070.84;5024530;28;20232;-65
2022/03/28 07:49:35;;;;;;;10.17;9.10;;;;;;;12.28;78.58;101069.09;5021826;28;20216;-63
2022/03/28 07:52:01;;;;;;;9.43;8.43;;;;;;;12.34;78.54;101072.53;5021303;28;20200;-65
2022/03/28 07:54:27;;;;;;;11.67;9.47;;;;;;;12.40;78.10;101066.47;5020992;28;20180;-65
2022/03/28 07:56:52;;;;;;;11.93;9.73;;;;;;;12.40;77.12;101069.06;5023054;28;20257;-65
2022/03/28 07:59:18;;;;;;;15.03;9.67;;;;;;;12.38;77.55;101069.94;5027690;28;20214;-65
2022/03/28 08:01:43;;;;;;;10.93;9.57;;;;;;;12.38;77.62;101070.78;5029250;28;20187;-64
2022/03/28 08:04:08;;;;;;;12.20;9.73;;;;;;;12.39;77.78;101071.66;5034049;28;20184;-64
2022/03/28 08:06:34;;;;;;;11.97;10.37;;;;;;;12.39;77.60;101059.53;5020456;28;20229;-64
2022/03/28 08:08:59;;;;;;;12.53;10.03;;;;;;;12.40;77.99;101058.66;5030955;28;20227;-64
2022/03/28 08:11:25;;;;;;;10.73;9.60;;;;;;;12.42;77.92;101059.53;5029798;28;20191;-64
2022/03/28 08:13:50;;;;;;;11.07;10.03;;;;;;;12.48;77.83;101061.25;5030098;28;20575;-65
2022/03/28 08:16:16;;;;;;;12.57;10.47;;;;;;;12.54;77.94;101048.25;5023197;28;20190;-65
2022/03/28 08:18:42;;;;;;;11.47;9.83;;;;;;;12.60;78.28;101045.59;5031090;28;20667;-66
2022/03/28 08:21:08;;;;;;;10.67;9.57;;;;;;;12.65;78.04;101043.84;5024672;28;20196;-65
2022/03/28 08:23:35;;;;;;;10.03;9.03;;;;;;;12.71;77.87;101045.53;5020777;28;20182;-65
2022/03/28 08:26:00;;;;;;;11.10;9.90;;;;;;;12.77;77.98;101042.91;5029483;28;20184;-65
2022/03/28 08:28:26;;;;;;;12.37;9.93;;;;;;;12.83;77.52;101038.53;5018476;28;20215;-64
2022/03/28 08:30:52;;;;;;;13.07;9.97;;;;;;;12.91;77.48;101035.03;5031167;28;20180;-64
2022/03/28 08:33:18;;;;;;;10.73;9.73;;;;;;;12.98;77.19;101030.66;5022185;28;20209;-65
2022/03/28 08:35:43;;;;;;;12.37;10.63;;;;;;;13.05;76.59;101031.47;5023023;28;20222;-66
2022/03/28 08:38:09;;;;;;;11.80;9.90;;;;;;;13.14;76.25;101028.81;5028312;28;20610;-64
2022/03/28 08:40:34;;;;;;;13.53;10.97;;;;;;;13.23;75.79;101027.88;5029597;28;20243;-64
2022/03/28 08:43:00;;;;;;;12.33;9.87;;;;;;;13.32;75.87;101025.19;5029518;28;20260;-64
2022/03/28 08:45:25;;;;;;;12.67;10.77;;;;;;;13.40;75.53;101023.41;5029174;28;20531;-64
2022/03/28 08:47:55;;;;;;;13.87;11.03;;;;;;;13.49;74.58;101019.88;5031083;28;20674;-66
2022/03/28 08:50:20;;;;;;;11.27;9.57;;;;;;;13.54;74.34;101019.81;5026641;28;20290;-66
2022/03/28 08:52:46;;;;;;;11.70;10.50;;;;;;;13.59;74.17;101022.41;5029382;28;20207;-65
2022/03/28 08:55:13;;;;;;;14.30;10.17;;;;;;;13.65;73.98;101018.00;5031216;28;20195;-65
2022/03/28 08:57:39;;;;;;;11.47;9.93;;;;;;;13.70;73.84;101023.16;5028930;28;20207;-66
2022/03/28 09:00:07;;;;;;;10.67;9.67;;;;;;;13.77;73.34;101018.75;5028872;28;20205;-65
2022/03/28 09:02:32;;;;;;;13.93;11.17;;;;;;;13.90;72.81;101016.88;5030395;28;20222;-65
2022/03/28 09:04:58;;;;;;;13.80;11.93;;;;;;;14.04;71.82;101014.97;5029747;28;20605;-65
2022/03/28 09:07:25;;;;;;;13.00;10.77;;;;;;;14.13;71.72;101014.00;5030550;28;20247;-66
2022/03/28 09:10:02;;;;;;;15.07;11.30;;;;;;;14.25;71.88;101010.38;5031302;28;20218;-65
2022/03/28 09:12:27;;;;;;;11.63;10.43;;;;;;;14.36;71.92;101005.91;5030200;28;20230;-66
2022/03/28 09:15:01;;;;;;;13.37;10.87;;;;;;;14.47;71.00;101010.94;5027768;28;20211;-64
2022/03/28 09:17:27;;;;;;;13.80;11.13;;;;;;;14.54;71.26;101012.59;5025935;28;20192;-65
2022/03/28 09:20:01;;;;;;;13.70;11.47;;;;;;;14.62;70.80;101007.28;5024227;28;20210;-64
2022/03/28 09:22:35;;;;;;;12.73;11.30;;;;;;;14.72;70.62;101016.72;5025476;28;20175;-65
2022/03/28 09:25:06;;;;;;;13.40;11.63;;;;;;;14.83;69.90;101008.75;5026763;28;20183;-66
2022/03/28 09:27:39;;;;;;;12.13;10.63;;;;;;;14.86;69.84;100997.41;5030901;28;20190;-66
2022/03/28 09:30:07;;;;;;;13.53;11.53;;;;;;;14.90;68.98;100997.31;5029389;28;20348;-66
2022/03/28 09:32:38;;;;;;;13.93;10.70;;;;;;;14.92;69.24;100987.75;5034881;28;20251;-67
2022/03/28 09:35:09;;;;;;;13.10;10.90;;;;;;;15.03;69.08;100978.91;5028864;28;20552;-66
2022/03/28 09:38:21;;;;;;;12.60;10.37;;;;;;;15.09;69.02;100979.66;5031667;28;20187;-67
2022/03/28 09:40:53;;;;;;;13.13;11.20;;;;;;;15.15;68.74;100967.41;5021451;28;20282;-67
2022/03/28 09:43:24;;;;;;;14.20;12.53;;;;;;;15.23;67.24;100970.75;5024721;28;20550;-66
2022/03/28 09:45:54;;;;;;;13.20;11.20;;;;;;;15.29;67.48;100960.19;5029887;28;20187;-66
2022/03/28 09:48:22;;;;;;;14.17;11.17;;;;;;;15.36;67.55;100958.34;5023381;28;20239;-65
2022/03/28 09:50:58;;;;;;;12.40;10.93;;;;;;;15.39;66.58;100951.34;5036854;28;20206;-66
2022/03/28 09:53:31;;;;;;;14.90;11.63;;;;;;;15.40;66.61;100952.19;5027272;28;20506;-66
2022/03/28 09:56:06;;;;;;;11.73;10.53;;;;;;;15.48;67.06;100950.31;5020966;28;20551;-65
2022/03/28 09:58:50;;;;;;;12.73;9.80;;;;;;;15.55;67.11;100946.69;5027161;28;20614;-67
2022/03/28 10:01:32;;;;;;;13.17;10.67;;;;;;;15.62;66.81;100944.81;5029591;28;20182;-65
2022/03/28 10:04:09;;;;;;;14.13;10.93;;;;;;;15.69;66.97;100943.81;5021272;28;20218;-66
2022/03/28 10:06:39;;;;;;;13.30;10.87;;;;;;;15.75;67.13;100936.72;5028958;28;20625;-65
2022/03/28 10:09:07;;;;;;;13.23;10.13;;;;;;;15.81;66.79;100931.41;5028124;28;20260;-63
2022/03/28 10:11:33;;;;;;;14.13;10.27;;;;;;;15.87;66.88;100936.53;5029310;28;20589;-65
2022/03/28 10:14:00;;;;;;;14.93;10.70;;;;;;;15.93;66.92;100930.34;5025993;28;20188;-65
2022/03/28 10:16:26;;;;;;;11.20;10.00;;;;;;;16.00;66.70;100922.34;5021540;28;20191;-65
2022/03/28 10:18:51;;;;;;;13.00;11.07;;;;;;;16.05;66.71;100917.00;5026724;28;20203;-65
2022/03/28 10:21:24;;;;;;;11.50;10.30;;;;;;;16.12;66.24;100915.97;5020010;28;20188;-64
2022/03/28 10:24:13;;;;;;;15.43;11.60;;;;;;;16.25;66.42;100905.28;5023357;28;20206;-65
2022/03/28 10:26:53;;;;;;;13.97;12.23;;;;;;;16.39;65.66;100910.16;5025800;28;20191;-65
2022/03/28 10:29:22;;;;;;;13.90;12.40;;;;;;;16.52;65.07;100901.13;5021138;28;20258;-64
2022/03/28 10:31:57;;;;;;;15.90;12.03;;;;;;;16.61;64.74;100900.94;5024208;28;20215;-65
2022/03/28 10:34:48;;;;;;;16.40;12.87;;;;;;;16.68;64.19;100896.41;5021753;28;20203;-64
2022/03/28 10:37:31;;;;;;;14.10;12.27;;;;;;;16.70;64.27;100894.63;5023906;28;20227;-66
2022/03/28 10:40:15;;;;;;;13.20;11.07;;;;;;;16.75;64.06;100886.66;5019235;28;20231;-65
2022/03/28 10:42:52;;;;;;;13.13;11.57;;;;;;;16.81;64.02;100883.88;5023005;28;20180;-64
2022/03/28 10:45:21;;;;;;;11.80;10.57;;;;;;;16.86;64.18;100881.16;5021784;28;20184;-66
2022/03/28 10:47:51;;;;;;;15.53;13.10;;;;;;;16.96;63.48;100872.22;5026726;28;20189;-64
2022/03/28 10:50:25;;;;;;;14.80;11.77;;;;;;;17.03;63.56;100878.13;5030015;28;20190;-66
2022/03/28 10:53:08;;;;;;;13.97;11.47;;;;;;;17.09;63.41;100870.16;5020306;28;20205;-64
2022/03/28 10:55:44;;;;;;;12.53;11.23;;;;;;;17.13;63.72;100869.13;5023844;28;20221;-65
2022/03/28 10:58:24;;;;;;;14.43;11.23;;;;;;;17.17;63.80;100852.47;5020387;28;20196;-66
2022/03/28 11:01:11;;;;;;;18.30;13.90;;;;;;;17.22;63.20;100854.97;5037157;28;20176;-64
2022/03/28 11:04:00;;;;;;;15.20;12.17;;;;;;;17.33;62.83;100849.44;5026396;28;20188;-66
2022/03/28 11:06:52;;;;;;;14.63;12.47;;;;;;;17.44;62.74;100846.53;5022581;28;20221;-67
2022/03/28 11:09:56;;;;;;;15.13;11.90;;;;;;;17.52;62.77;100847.13;5023341;28;20213;-66
2022/03/28 11:12:34;;;;;;;14.43;11.87;;;;;;;17.58;62.61;100838.25;5021216;28;20305;-64
2022/03/28 11:15:05;;;;;;;13.17;11.20;;;;;;;17.63;62.54;100834.59;5021567;28;20190;-65
2022/03/28 11:17:34;;;;;;;13.30;11.87;;;;;;;17.63;63.13;100831.97;5024525;28;20297;-66
2022/03/28 11:20:09;;;;;;;12.03;10.03;;;;;;;17.65;63.14;100832.78;5022047;28;20278;-64
2022/03/28 11:22:55;;;;;;;13.87;11.73;;;;;;;17.65;62.31;100826.72;5030473;28;20193;-65